sensor_id;sensor_type;location;lat;lon;timestamp;P1;durP1;ratioP1;P2;durP2;ratioP2
22871;SDS011;11603;44.910;8.630;2022-11-15T00:01:43;106.10;;;35.10;;
22871;SDS011;11603;44.910;8.630;2022-11-15T00:04:27;70.60;;;35.58;;
22871;SDS011;11603;44.910;8.630;2022-11-15T00:07:11;82.78;;;34.85;;
22871;SDS011;11603;44.910;8.630;2022-11-15T00:09:55;99.28;;;33.80;;
22871;SDS011;11603;44.910;8.630;2022-11-15T00:12:39;93.50;;;33.67;;
22871;SDS011;11603;44.910;8.630;2022-11-15T00:15:23;80.30;;;33.90;;
22871;SDS011;11603;44.910;8.630;2022-11-15T00:18:11;120.72;;;34.65;;
22871;SDS011;11603;44.910;8.630;2022-11-15T00:21:02;91.75;;;35.13;;
22871;SDS011;11603;44.910;8.630;2022-11-15T00:23:48;127.18;;;35.60;;
22871;SDS011;11603;44.910;8.630;2022-11-15T00:26:32;71.32;;;34.67;;
22871;SDS011;11603;44.910;8.630;2022-11-15T00:29:16;68.70;;;33.15;;
22871;SDS011;11603;44.910;8.630;2022-11-15T00:32:00;65.38;;;34.35;;
22871;SDS011;11603;44.910;8.630;2022-11-15T00:34:44;61.60;;;33.55;;
22871;SDS011;11603;44.910;8.630;2022-11-15T00:37:28;58.50;;;33.83;;
22871;SDS011;11603;44.910;8.630;2022-11-15T00:40:12;58.78;;;34.35;;
22871;SDS011;11603;44.910;8.630;2022-11-15T00:42:56;52.88;;;32.20;;
22871;SDS011;11603;44.910;8.630;2022-11-15T00:45:40;52.63;;;33.45;;
22871;SDS011;11603;44.910;8.630;2022-11-15T00:48:24;57.15;;;34.40;;
22871;SDS011;11603;44.910;8.630;2022-11-15T00:51:08;53.53;;;32.70;;
22871;SDS011;11603;44.910;8.630;2022-11-15T00:53:52;53.33;;;33.53;;
22871;SDS011;11603;44.910;8.630;2022-11-15T00:56:36;54.95;;;33.95;;
22871;SDS011;11603;44.910;8.630;2022-11-15T00:59:20;51.20;;;32.63;;
22871;SDS011;11603;44.910;8.630;2022-11-15T01:02:04;54.00;;;32.53;;
22871;SDS011;11603;44.910;8.630;2022-11-15T01:04:48;52.25;;;33.30;;
22871;SDS011;11603;44.910;8.630;2022-11-15T01:07:32;53.20;;;33.78;;
22871;SDS011;11603;44.910;8.630;2022-11-15T01:10:16;49.83;;;31.73;;
22871;SDS011;11603;44.910;8.630;2022-11-15T01:13:00;58.83;;;34.35;;
22871;SDS011;11603;44.910;8.630;2022-11-15T01:15:44;48.78;;;30.60;;
22871;SDS011;11603;44.910;8.630;2022-11-15T01:18:29;50.40;;;32.17;;
22871;SDS011;11603;44.910;8.630;2022-11-15T01:21:14;48.40;;;32.10;;
22871;SDS011;11603;44.910;8.630;2022-11-15T01:23:59;52.65;;;32.47;;
22871;SDS011;11603;44.910;8.630;2022-11-15T01:26:44;51.05;;;31.77;;
22871;SDS011;11603;44.910;8.630;2022-11-15T01:29:28;52.15;;;33.40;;
22871;SDS011;11603;44.910;8.630;2022-11-15T01:32:12;53.15;;;32.30;;
22871;SDS011;11603;44.910;8.630;2022-11-15T01:34:56;50.90;;;31.60;;
22871;SDS011;11603;44.910;8.630;2022-11-15T01:37:40;47.83;;;30.20;;
22871;SDS011;11603;44.910;8.630;2022-11-15T01:40:24;35.65;;;26.80;;
22871;SDS011;11603;44.910;8.630;2022-11-15T01:43:21;36.58;;;25.27;;
22871;SDS011;11603;44.910;8.630;2022-11-15T01:49:11;38.03;;;26.17;;
22871;SDS011;11603;44.910;8.630;2022-11-15T01:52:00;40.70;;;26.30;;
22871;SDS011;11603;44.910;8.630;2022-11-15T01:54:48;38.85;;;25.40;;
22871;SDS011;11603;44.910;8.630;2022-11-15T01:57:37;37.47;;;26.17;;
22871;SDS011;11603;44.910;8.630;2022-11-15T02:00:22;40.75;;;26.92;;
22871;SDS011;11603;44.910;8.630;2022-11-15T02:03:06;37.90;;;25.75;;
22871;SDS011;11603;44.910;8.630;2022-11-15T02:05:50;34.72;;;24.08;;
22871;SDS011;11603;44.910;8.630;2022-11-15T02:08:35;37.55;;;25.20;;
22871;SDS011;11603;44.910;8.630;2022-11-15T02:11:19;34.33;;;24.48;;
22871;SDS011;11603;44.910;8.630;2022-11-15T02:14:03;39.80;;;25.55;;
22871;SDS011;11603;44.910;8.630;2022-11-15T02:16:58;39.47;;;25.55;;
22871;SDS011;11603;44.910;8.630;2022-11-15T02:31:51;38.13;;;26.08;;
22871;SDS011;11603;44.910;8.630;2022-11-15T02:34:51;40.17;;;26.95;;
22871;SDS011;11603;44.910;8.630;2022-11-15T02:37:46;40.67;;;26.58;;
22871;SDS011;11603;44.910;8.630;2022-11-15T02:43:51;41.15;;;27.30;;
22871;SDS011;11603;44.910;8.630;2022-11-15T02:46:48;43.47;;;28.13;;
22871;SDS011;11603;44.910;8.630;2022-11-15T02:49:57;38.70;;;26.70;;
22871;SDS011;11603;44.910;8.630;2022-11-15T02:52:47;40.67;;;26.95;;
22871;SDS011;11603;44.910;8.630;2022-11-15T02:55:48;41.20;;;26.77;;
22871;SDS011;11603;44.910;8.630;2022-11-15T03:07:43;44.95;;;28.48;;
22871;SDS011;11603;44.910;8.630;2022-11-15T03:10:36;43.20;;;28.58;;
22871;SDS011;11603;44.910;8.630;2022-11-15T03:19:46;41.97;;;28.00;;
22871;SDS011;11603;44.910;8.630;2022-11-15T03:22:33;43.88;;;29.38;;
22871;SDS011;11603;44.910;8.630;2022-11-15T03:25:24;46.10;;;29.58;;
22871;SDS011;11603;44.910;8.630;2022-11-15T03:28:11;45.22;;;28.88;;
22871;SDS011;11603;44.910;8.630;2022-11-15T03:31:00;43.70;;;29.67;;
22871;SDS011;11603;44.910;8.630;2022-11-15T03:34:06;47.60;;;29.10;;
22871;SDS011;11603;44.910;8.630;2022-11-15T03:36:54;44.00;;;29.13;;
22871;SDS011;11603;44.910;8.630;2022-11-15T03:39:39;43.03;;;29.65;;
22871;SDS011;11603;44.910;8.630;2022-11-15T03:42:27;44.20;;;28.60;;
22871;SDS011;11603;44.910;8.630;2022-11-15T03:45:32;44.72;;;29.83;;
22871;SDS011;11603;44.910;8.630;2022-11-15T03:48:24;43.60;;;28.15;;
22871;SDS011;11603;44.910;8.630;2022-11-15T03:51:12;43.08;;;28.95;;
22871;SDS011;11603;44.910;8.630;2022-11-15T03:53:57;44.58;;;30.33;;
22871;SDS011;11603;44.910;8.630;2022-11-15T03:56:41;49.63;;;29.90;;
22871;SDS011;11603;44.910;8.630;2022-11-15T03:59:25;46.38;;;30.70;;
22871;SDS011;11603;44.910;8.630;2022-11-15T04:02:09;48.05;;;30.02;;
22871;SDS011;11603;44.910;8.630;2022-11-15T04:04:53;45.08;;;30.88;;
22871;SDS011;11603;44.910;8.630;2022-11-15T04:07:37;48.35;;;30.73;;
22871;SDS011;11603;44.910;8.630;2022-11-15T04:10:21;46.33;;;31.58;;
22871;SDS011;11603;44.910;8.630;2022-11-15T04:13:06;45.75;;;30.13;;
22871;SDS011;11603;44.910;8.630;2022-11-15T04:15:49;47.78;;;30.77;;
22871;SDS011;11603;44.910;8.630;2022-11-15T04:18:33;44.25;;;30.00;;
22871;SDS011;11603;44.910;8.630;2022-11-15T04:21:17;44.45;;;29.48;;
22871;SDS011;11603;44.910;8.630;2022-11-15T04:24:34;45.60;;;29.10;;
22871;SDS011;11603;44.910;8.630;2022-11-15T04:27:18;48.92;;;30.70;;
22871;SDS011;11603;44.910;8.630;2022-11-15T04:30:02;47.53;;;30.17;;
22871;SDS011;11603;44.910;8.630;2022-11-15T04:32:47;45.67;;;29.33;;
22871;SDS011;11603;44.910;8.630;2022-11-15T04:35:30;42.90;;;28.67;;
22871;SDS011;11603;44.910;8.630;2022-11-15T04:38:14;46.10;;;29.73;;
22871;SDS011;11603;44.910;8.630;2022-11-15T04:40:58;46.20;;;28.95;;
22871;SDS011;11603;44.910;8.630;2022-11-15T04:43:43;46.65;;;29.38;;
22871;SDS011;11603;44.910;8.630;2022-11-15T04:46:27;46.25;;;28.73;;
22871;SDS011;11603;44.910;8.630;2022-11-15T04:49:10;44.47;;;29.08;;
22871;SDS011;11603;44.910;8.630;2022-11-15T04:51:54;47.03;;;29.88;;
22871;SDS011;11603;44.910;8.630;2022-11-15T04:54:38;47.15;;;29.35;;
22871;SDS011;11603;44.910;8.630;2022-11-15T04:57:22;42.35;;;27.90;;
22871;SDS011;11603;44.910;8.630;2022-11-15T05:00:07;45.90;;;28.48;;
22871;SDS011;11603;44.910;8.630;2022-11-15T05:02:54;44.95;;;28.48;;
22871;SDS011;11603;44.910;8.630;2022-11-15T05:05:58;45.05;;;28.45;;
22871;SDS011;11603;44.910;8.630;2022-11-15T05:08:42;43.97;;;28.42;;
22871;SDS011;11603;44.910;8.630;2022-11-15T05:11:27;47.45;;;30.70;;
22871;SDS011;11603;44.910;8.630;2022-11-15T05:14:10;42.75;;;28.45;;
22871;SDS011;11603;44.910;8.630;2022-11-15T05:16:55;42.47;;;29.05;;
22871;SDS011;11603;44.910;8.630;2022-11-15T05:19:39;41.97;;;27.83;;
22871;SDS011;11603;44.910;8.630;2022-11-15T05:22:23;42.67;;;29.17;;
22871;SDS011;11603;44.910;8.630;2022-11-15T05:25:07;40.55;;;28.17;;
22871;SDS011;11603;44.910;8.630;2022-11-15T05:27:51;43.92;;;28.50;;
22871;SDS011;11603;44.910;8.630;2022-11-15T05:30:35;40.83;;;28.98;;
22871;SDS011;11603;44.910;8.630;2022-11-15T05:33:19;44.75;;;29.92;;
22871;SDS011;11603;44.910;8.630;2022-11-15T05:36:05;44.15;;;28.48;;
22871;SDS011;11603;44.910;8.630;2022-11-15T05:38:52;47.17;;;30.52;;
22871;SDS011;11603;44.910;8.630;2022-11-15T05:41:39;44.85;;;30.60;;
22871;SDS011;11603;44.910;8.630;2022-11-15T05:44:41;46.97;;;31.52;;
22871;SDS011;11603;44.910;8.630;2022-11-15T05:47:29;42.95;;;30.20;;
22871;SDS011;11603;44.910;8.630;2022-11-15T05:50:14;45.50;;;30.52;;
22871;SDS011;11603;44.910;8.630;2022-11-15T05:53:00;47.63;;;29.80;;
22871;SDS011;11603;44.910;8.630;2022-11-15T05:55:45;52.20;;;31.20;;
22871;SDS011;11603;44.910;8.630;2022-11-15T05:58:31;48.30;;;30.88;;
22871;SDS011;11603;44.910;8.630;2022-11-15T06:01:16;48.40;;;30.80;;
22871;SDS011;11603;44.910;8.630;2022-11-15T06:03:59;48.30;;;31.45;;
22871;SDS011;11603;44.910;8.630;2022-11-15T06:06:43;49.50;;;31.58;;
22871;SDS011;11603;44.910;8.630;2022-11-15T06:09:27;50.05;;;31.13;;
22871;SDS011;11603;44.910;8.630;2022-11-15T06:12:11;47.83;;;30.02;;
22871;SDS011;11603;44.910;8.630;2022-11-15T06:14:55;50.83;;;31.33;;
22871;SDS011;11603;44.910;8.630;2022-11-15T06:17:39;48.28;;;31.23;;
22871;SDS011;11603;44.910;8.630;2022-11-15T06:20:27;48.67;;;30.92;;
22871;SDS011;11603;44.910;8.630;2022-11-15T06:23:12;47.92;;;31.48;;
22871;SDS011;11603;44.910;8.630;2022-11-15T06:25:57;48.20;;;30.27;;
22871;SDS011;11603;44.910;8.630;2022-11-15T06:28:42;49.47;;;31.17;;
22871;SDS011;11603;44.910;8.630;2022-11-15T06:31:25;53.40;;;31.75;;
22871;SDS011;11603;44.910;8.630;2022-11-15T06:34:09;49.45;;;31.27;;
22871;SDS011;11603;44.910;8.630;2022-11-15T06:36:53;46.22;;;30.95;;
22871;SDS011;11603;44.910;8.630;2022-11-15T06:39:40;54.67;;;33.78;;
22871;SDS011;11603;44.910;8.630;2022-11-15T06:42:24;45.30;;;31.40;;
22871;SDS011;11603;44.910;8.630;2022-11-15T06:45:08;47.22;;;30.83;;
22871;SDS011;11603;44.910;8.630;2022-11-15T06:47:53;45.13;;;29.67;;
22871;SDS011;11603;44.910;8.630;2022-11-15T06:50:37;44.35;;;30.00;;
22871;SDS011;11603;44.910;8.630;2022-11-15T06:53:20;48.17;;;30.60;;
22871;SDS011;11603;44.910;8.630;2022-11-15T06:56:05;49.53;;;30.45;;
22871;SDS011;11603;44.910;8.630;2022-11-15T06:58:50;46.95;;;31.10;;
22871;SDS011;11603;44.910;8.630;2022-11-15T07:01:34;46.00;;;30.42;;
22871;SDS011;11603;44.910;8.630;2022-11-15T07:04:18;49.63;;;31.33;;
22871;SDS011;11603;44.910;8.630;2022-11-15T07:07:03;46.78;;;32.15;;
22871;SDS011;11603;44.910;8.630;2022-11-15T07:09:46;52.50;;;31.25;;
22871;SDS011;11603;44.910;8.630;2022-11-15T07:12:31;47.85;;;30.75;;
22871;SDS011;11603;44.910;8.630;2022-11-15T07:15:15;51.95;;;31.98;;
22871;SDS011;11603;44.910;8.630;2022-11-15T07:18:00;52.53;;;31.63;;
22871;SDS011;11603;44.910;8.630;2022-11-15T07:20:45;53.42;;;32.45;;
22871;SDS011;11603;44.910;8.630;2022-11-15T07:23:29;52.72;;;31.38;;
22871;SDS011;11603;44.910;8.630;2022-11-15T07:26:13;49.17;;;30.10;;
22871;SDS011;11603;44.910;8.630;2022-11-15T07:28:57;49.13;;;31.30;;
22871;SDS011;11603;44.910;8.630;2022-11-15T07:31:41;49.60;;;31.45;;
22871;SDS011;11603;44.910;8.630;2022-11-15T07:34:25;47.72;;;30.65;;
22871;SDS011;11603;44.910;8.630;2022-11-15T07:37:09;46.63;;;31.45;;
22871;SDS011;11603;44.910;8.630;2022-11-15T07:39:54;45.83;;;31.33;;
22871;SDS011;11603;44.910;8.630;2022-11-15T07:42:38;43.88;;;29.98;;
22871;SDS011;11603;44.910;8.630;2022-11-15T07:45:43;47.80;;;30.95;;
22871;SDS011;11603;44.910;8.630;2022-11-15T07:48:29;44.85;;;30.48;;
22871;SDS011;11603;44.910;8.630;2022-11-15T07:51:15;48.00;;;29.67;;
22871;SDS011;11603;44.910;8.630;2022-11-15T07:54:00;46.35;;;30.20;;
22871;SDS011;11603;44.910;8.630;2022-11-15T07:56:45;48.42;;;30.58;;
22871;SDS011;11603;44.910;8.630;2022-11-15T07:59:28;47.00;;;30.63;;
22871;SDS011;11603;44.910;8.630;2022-11-15T08:02:12;46.03;;;30.85;;
22871;SDS011;11603;44.910;8.630;2022-11-15T08:04:56;47.30;;;31.80;;
22871;SDS011;11603;44.910;8.630;2022-11-15T08:07:40;48.63;;;31.67;;
22871;SDS011;11603;44.910;8.630;2022-11-15T08:10:25;47.60;;;31.50;;
22871;SDS011;11603;44.910;8.630;2022-11-15T08:13:10;44.17;;;29.50;;
22871;SDS011;11603;44.910;8.630;2022-11-15T08:15:58;42.55;;;28.85;;
22871;SDS011;11603;44.910;8.630;2022-11-15T08:18:43;43.22;;;28.60;;
22871;SDS011;11603;44.910;8.630;2022-11-15T08:21:27;43.65;;;29.88;;
22871;SDS011;11603;44.910;8.630;2022-11-15T08:24:11;42.63;;;28.77;;
22871;SDS011;11603;44.910;8.630;2022-11-15T08:26:55;43.60;;;28.80;;
22871;SDS011;11603;44.910;8.630;2022-11-15T08:29:39;42.53;;;28.58;;
22871;SDS011;11603;44.910;8.630;2022-11-15T08:32:23;44.63;;;28.73;;
22871;SDS011;11603;44.910;8.630;2022-11-15T08:35:07;43.70;;;29.15;;
22871;SDS011;11603;44.910;8.630;2022-11-15T08:37:52;41.63;;;28.15;;
22871;SDS011;11603;44.910;8.630;2022-11-15T08:40:37;43.08;;;29.23;;
22871;SDS011;11603;44.910;8.630;2022-11-15T08:43:21;42.45;;;27.98;;
22871;SDS011;11603;44.910;8.630;2022-11-15T08:46:05;48.60;;;32.03;;
22871;SDS011;11603;44.910;8.630;2022-11-15T08:48:49;50.00;;;32.20;;
22871;SDS011;11603;44.910;8.630;2022-11-15T08:51:32;49.83;;;33.28;;
22871;SDS011;11603;44.910;8.630;2022-11-15T08:54:16;55.42;;;35.25;;
22871;SDS011;11603;44.910;8.630;2022-11-15T08:57:00;52.60;;;32.72;;
22871;SDS011;11603;44.910;8.630;2022-11-15T08:59:44;46.55;;;31.33;;
22871;SDS011;11603;44.910;8.630;2022-11-15T09:02:28;48.53;;;31.30;;
22871;SDS011;11603;44.910;8.630;2022-11-15T09:05:12;44.55;;;29.67;;
22871;SDS011;11603;44.910;8.630;2022-11-15T09:07:57;46.53;;;29.55;;
22871;SDS011;11603;44.910;8.630;2022-11-15T09:10:41;45.20;;;29.05;;
22871;SDS011;11603;44.910;8.630;2022-11-15T09:13:24;46.72;;;30.10;;
22871;SDS011;11603;44.910;8.630;2022-11-15T09:16:08;47.75;;;30.10;;
22871;SDS011;11603;44.910;8.630;2022-11-15T09:18:53;45.35;;;30.80;;
22871;SDS011;11603;44.910;8.630;2022-11-15T09:21:38;44.88;;;29.45;;
22871;SDS011;11603;44.910;8.630;2022-11-15T09:24:22;47.25;;;30.70;;
22871;SDS011;11603;44.910;8.630;2022-11-15T09:27:06;43.03;;;30.05;;
22871;SDS011;11603;44.910;8.630;2022-11-15T09:29:50;43.28;;;29.27;;
22871;SDS011;11603;44.910;8.630;2022-11-15T09:32:34;43.38;;;28.30;;
22871;SDS011;11603;44.910;8.630;2022-11-15T09:35:18;43.88;;;29.00;;
22871;SDS011;11603;44.910;8.630;2022-11-15T09:38:02;44.88;;;29.85;;
22871;SDS011;11603;44.910;8.630;2022-11-15T09:40:51;47.22;;;30.77;;
22871;SDS011;11603;44.910;8.630;2022-11-15T09:50:00;48.97;;;30.85;;
22871;SDS011;11603;44.910;8.630;2022-11-15T09:52:33;49.08;;;31.15;;
22871;SDS011;11603;44.910;8.630;2022-11-15T09:55:01;46.72;;;30.30;;
22871;SDS011;11603;44.910;8.630;2022-11-15T09:57:32;46.58;;;30.73;;
22871;SDS011;11603;44.910;8.630;2022-11-15T10:00:35;46.17;;;31.15;;
22871;SDS011;11603;44.910;8.630;2022-11-15T10:05:53;46.20;;;31.52;;
22871;SDS011;11603;44.910;8.630;2022-11-15T10:11:14;48.67;;;31.83;;
22871;SDS011;11603;44.910;8.630;2022-11-15T10:13:43;54.05;;;34.03;;
22871;SDS011;11603;44.910;8.630;2022-11-15T10:21:46;56.40;;;36.13;;
22871;SDS011;11603;44.910;8.630;2022-11-15T10:24:18;52.38;;;34.13;;
22871;SDS011;11603;44.910;8.630;2022-11-15T10:26:49;52.92;;;34.50;;
22871;SDS011;11603;44.910;8.630;2022-11-15T10:29:19;56.80;;;34.33;;
22871;SDS011;11603;44.910;8.630;2022-11-15T10:31:45;52.80;;;34.55;;
22871;SDS011;11603;44.910;8.630;2022-11-15T10:34:13;54.67;;;35.05;;
22871;SDS011;11603;44.910;8.630;2022-11-15T10:36:43;55.90;;;34.83;;
22871;SDS011;11603;44.910;8.630;2022-11-15T10:39:13;52.83;;;34.60;;
22871;SDS011;11603;44.910;8.630;2022-11-15T10:41:40;54.80;;;36.50;;
22871;SDS011;11603;44.910;8.630;2022-11-15T10:46:32;57.53;;;36.45;;
22871;SDS011;11603;44.910;8.630;2022-11-15T10:49:11;58.05;;;35.60;;
22871;SDS011;11603;44.910;8.630;2022-11-15T10:51:54;66.35;;;39.03;;
22871;SDS011;11603;44.910;8.630;2022-11-15T10:57:20;62.00;;;36.50;;
22871;SDS011;11603;44.910;8.630;2022-11-15T10:59:52;61.30;;;37.50;;
22871;SDS011;11603;44.910;8.630;2022-11-15T11:02:30;63.75;;;38.85;;
22871;SDS011;11603;44.910;8.630;2022-11-15T11:05:03;62.20;;;37.22;;
22871;SDS011;11603;44.910;8.630;2022-11-15T11:07:54;61.95;;;37.83;;
22871;SDS011;11603;44.910;8.630;2022-11-15T11:10:21;60.65;;;37.58;;
22871;SDS011;11603;44.910;8.630;2022-11-15T11:12:47;58.55;;;35.63;;
22871;SDS011;11603;44.910;8.630;2022-11-15T11:15:13;60.38;;;37.65;;
22871;SDS011;11603;44.910;8.630;2022-11-15T11:17:57;62.40;;;37.33;;
22871;SDS011;11603;44.910;8.630;2022-11-15T11:28:55;66.38;;;39.17;;
22871;SDS011;11603;44.910;8.630;2022-11-15T11:34:11;63.75;;;36.55;;
22871;SDS011;11603;44.910;8.630;2022-11-15T11:39:54;64.95;;;36.55;;
22871;SDS011;11603;44.910;8.630;2022-11-15T11:50:37;59.55;;;36.45;;
22871;SDS011;11603;44.910;8.630;2022-11-15T11:55:49;57.88;;;35.72;;
22871;SDS011;11603;44.910;8.630;2022-11-15T11:58:34;58.10;;;35.72;;
22871;SDS011;11603;44.910;8.630;2022-11-15T12:08:47;53.22;;;34.00;;
22871;SDS011;11603;44.910;8.630;2022-11-15T12:11:30;51.83;;;33.63;;
22871;SDS011;11603;44.910;8.630;2022-11-15T12:14:20;50.30;;;33.25;;
22871;SDS011;11603;44.910;8.630;2022-11-15T12:16:52;55.42;;;34.85;;
22871;SDS011;11603;44.910;8.630;2022-11-15T12:19:17;52.78;;;33.55;;
22871;SDS011;11603;44.910;8.630;2022-11-15T12:24:40;62.47;;;38.80;;
22871;SDS011;11603;44.910;8.630;2022-11-15T12:27:31;46.47;;;31.08;;
22871;SDS011;11603;44.910;8.630;2022-11-15T12:30:08;52.72;;;34.25;;
22871;SDS011;11603;44.910;8.630;2022-11-15T12:32:37;52.17;;;32.63;;
22871;SDS011;11603;44.910;8.630;2022-11-15T12:35:19;50.90;;;33.53;;
22871;SDS011;11603;44.910;8.630;2022-11-15T12:38:09;48.65;;;31.88;;
22871;SDS011;11603;44.910;8.630;2022-11-15T12:40:36;50.67;;;32.53;;
22871;SDS011;11603;44.910;8.630;2022-11-15T12:45:42;48.55;;;31.40;;
22871;SDS011;11603;44.910;8.630;2022-11-15T12:51:02;46.97;;;31.20;;
22871;SDS011;11603;44.910;8.630;2022-11-15T12:53:32;50.33;;;32.42;;
22871;SDS011;11603;44.910;8.630;2022-11-15T12:58:46;49.60;;;31.02;;
22871;SDS011;11603;44.910;8.630;2022-11-15T13:06:50;44.40;;;28.45;;
22871;SDS011;11603;44.910;8.630;2022-11-15T13:17:37;37.85;;;26.38;;
22871;SDS011;11603;44.910;8.630;2022-11-15T13:26:02;36.35;;;24.88;;
22871;SDS011;11603;44.910;8.630;2022-11-15T13:30:50;32.55;;;23.67;;
22871;SDS011;11603;44.910;8.630;2022-11-15T13:35:46;32.78;;;23.42;;
22871;SDS011;11603;44.910;8.630;2022-11-15T13:40:49;31.50;;;22.75;;
22871;SDS011;11603;44.910;8.630;2022-11-15T13:43:37;30.83;;;20.98;;
22871;SDS011;11603;44.910;8.630;2022-11-15T13:49:07;31.63;;;22.70;;
22871;SDS011;11603;44.910;8.630;2022-11-15T13:56:38;27.90;;;21.48;;
22871;SDS011;11603;44.910;8.630;2022-11-15T13:59:44;29.05;;;21.08;;
22871;SDS011;11603;44.910;8.630;2022-11-15T14:02:19;30.92;;;21.98;;
22871;SDS011;11603;44.910;8.630;2022-11-15T14:04:52;30.30;;;22.05;;
22871;SDS011;11603;44.910;8.630;2022-11-15T14:07:21;26.85;;;20.63;;
22871;SDS011;11603;44.910;8.630;2022-11-15T14:09:48;28.15;;;20.40;;
22871;SDS011;11603;44.910;8.630;2022-11-15T14:12:22;26.15;;;20.23;;
22871;SDS011;11603;44.910;8.630;2022-11-15T14:14:53;26.55;;;19.10;;
22871;SDS011;11603;44.910;8.630;2022-11-15T14:19:53;25.38;;;19.30;;
22871;SDS011;11603;44.910;8.630;2022-11-15T14:22:19;21.55;;;17.40;;
22871;SDS011;11603;44.910;8.630;2022-11-15T14:25:03;22.98;;;18.00;;
22871;SDS011;11603;44.910;8.630;2022-11-15T14:27:41;20.33;;;16.60;;
22871;SDS011;11603;44.910;8.630;2022-11-15T14:30:16;20.25;;;15.15;;
22871;SDS011;11603;44.910;8.630;2022-11-15T14:32:46;17.30;;;12.55;;
22871;SDS011;11603;44.910;8.630;2022-11-15T14:35:15;17.88;;;12.63;;
22871;SDS011;11603;44.910;8.630;2022-11-15T14:37:43;16.25;;;11.98;;
22871;SDS011;11603;44.910;8.630;2022-11-15T14:40:12;16.73;;;12.35;;
22871;SDS011;11603;44.910;8.630;2022-11-15T14:42:43;16.58;;;12.85;;
22871;SDS011;11603;44.910;8.630;2022-11-15T14:45:14;18.30;;;12.63;;
22871;SDS011;11603;44.910;8.630;2022-11-15T14:47:41;17.90;;;12.52;;
22871;SDS011;11603;44.910;8.630;2022-11-15T14:50:15;15.00;;;11.82;;
22871;SDS011;11603;44.910;8.630;2022-11-15T14:52:42;17.08;;;12.18;;
22871;SDS011;11603;44.910;8.630;2022-11-15T14:55:27;15.43;;;12.48;;
22871;SDS011;11603;44.910;8.630;2022-11-15T14:57:56;16.30;;;12.68;;
22871;SDS011;11603;44.910;8.630;2022-11-15T15:00:21;17.38;;;12.27;;
22871;SDS011;11603;44.910;8.630;2022-11-15T15:02:47;15.98;;;12.43;;
22871;SDS011;11603;44.910;8.630;2022-11-15T15:07:44;13.85;;;11.40;;
22871;SDS011;11603;44.910;8.630;2022-11-15T15:10:11;14.95;;;11.38;;
22871;SDS011;11603;44.910;8.630;2022-11-15T15:12:37;13.55;;;10.55;;
22871;SDS011;11603;44.910;8.630;2022-11-15T15:15:02;11.70;;;9.85;;
22871;SDS011;11603;44.910;8.630;2022-11-15T15:17:28;12.55;;;9.70;;
22871;SDS011;11603;44.910;8.630;2022-11-15T15:19:54;13.55;;;9.52;;
22871;SDS011;11603;44.910;8.630;2022-11-15T15:22:19;10.77;;;9.23;;
22871;SDS011;11603;44.910;8.630;2022-11-15T15:24:50;11.32;;;9.60;;
22871;SDS011;11603;44.910;8.630;2022-11-15T15:27:16;12.60;;;9.63;;
22871;SDS011;11603;44.910;8.630;2022-11-15T15:29:41;14.23;;;10.27;;
22871;SDS011;11603;44.910;8.630;2022-11-15T15:32:07;13.68;;;10.18;;
22871;SDS011;11603;44.910;8.630;2022-11-15T15:34:33;11.63;;;9.38;;
22871;SDS011;11603;44.910;8.630;2022-11-15T15:39:49;10.52;;;8.90;;
22871;SDS011;11603;44.910;8.630;2022-11-15T15:42:15;12.18;;;9.25;;
22871;SDS011;11603;44.910;8.630;2022-11-15T15:44:41;11.05;;;9.75;;
22871;SDS011;11603;44.910;8.630;2022-11-15T15:47:16;10.15;;;9.00;;
22871;SDS011;11603;44.910;8.630;2022-11-15T15:49:44;11.18;;;9.38;;
22871;SDS011;11603;44.910;8.630;2022-11-15T15:52:11;11.38;;;9.50;;
22871;SDS011;11603;44.910;8.630;2022-11-15T15:54:37;11.63;;;9.70;;
22871;SDS011;11603;44.910;8.630;2022-11-15T15:57:04;9.98;;;8.93;;
22871;SDS011;11603;44.910;8.630;2022-11-15T15:59:30;12.57;;;10.20;;
22871;SDS011;11603;44.910;8.630;2022-11-15T16:01:56;11.32;;;9.52;;
22871;SDS011;11603;44.910;8.630;2022-11-15T16:04:21;12.52;;;10.02;;
22871;SDS011;11603;44.910;8.630;2022-11-15T16:06:47;10.18;;;8.32;;
22871;SDS011;11603;44.910;8.630;2022-11-15T16:09:16;9.63;;;8.57;;
22871;SDS011;11603;44.910;8.630;2022-11-15T16:11:43;13.00;;;9.38;;
22871;SDS011;11603;44.910;8.630;2022-11-15T16:14:10;13.82;;;9.45;;
22871;SDS011;11603;44.910;8.630;2022-11-15T16:16:36;13.73;;;10.48;;
22871;SDS011;11603;44.910;8.630;2022-11-15T16:19:03;14.60;;;10.30;;
22871;SDS011;11603;44.910;8.630;2022-11-15T16:21:29;13.45;;;10.35;;
22871;SDS011;11603;44.910;8.630;2022-11-15T16:23:55;13.23;;;10.70;;
22871;SDS011;11603;44.910;8.630;2022-11-15T16:26:21;12.30;;;10.43;;
22871;SDS011;11603;44.910;8.630;2022-11-15T16:28:49;13.82;;;10.52;;
22871;SDS011;11603;44.910;8.630;2022-11-15T16:31:15;15.38;;;10.10;;
22871;SDS011;11603;44.910;8.630;2022-11-15T16:33:43;14.60;;;11.55;;
22871;SDS011;11603;44.910;8.630;2022-11-15T16:38:45;14.10;;;9.90;;
22871;SDS011;11603;44.910;8.630;2022-11-15T16:41:10;12.25;;;9.88;;
22871;SDS011;11603;44.910;8.630;2022-11-15T16:43:36;17.27;;;11.43;;
22871;SDS011;11603;44.910;8.630;2022-11-15T16:46:18;16.02;;;11.77;;
22871;SDS011;11603;44.910;8.630;2022-11-15T16:48:45;13.75;;;11.27;;
22871;SDS011;11603;44.910;8.630;2022-11-15T16:51:11;14.63;;;11.32;;
22871;SDS011;11603;44.910;8.630;2022-11-15T16:53:37;13.35;;;11.35;;
22871;SDS011;11603;44.910;8.630;2022-11-15T16:56:03;13.00;;;10.27;;
22871;SDS011;11603;44.910;8.630;2022-11-15T16:58:34;11.75;;;10.50;;
22871;SDS011;11603;44.910;8.630;2022-11-15T17:01:01;12.63;;;9.45;;
22871;SDS011;11603;44.910;8.630;2022-11-15T17:03:27;13.50;;;10.48;;
22871;SDS011;11603;44.910;8.630;2022-11-15T17:05:52;12.10;;;9.77;;
22871;SDS011;11603;44.910;8.630;2022-11-15T17:08:23;10.93;;;9.23;;
22871;SDS011;11603;44.910;8.630;2022-11-15T17:10:48;11.73;;;9.80;;
22871;SDS011;11603;44.910;8.630;2022-11-15T17:13:14;12.77;;;9.48;;
22871;SDS011;11603;44.910;8.630;2022-11-15T17:15:40;11.32;;;10.05;;
22871;SDS011;11603;44.910;8.630;2022-11-15T17:18:06;12.90;;;9.82;;
22871;SDS011;11603;44.910;8.630;2022-11-15T17:20:31;13.43;;;10.73;;
22871;SDS011;11603;44.910;8.630;2022-11-15T17:22:57;18.30;;;10.48;;
22871;SDS011;11603;44.910;8.630;2022-11-15T17:25:22;14.40;;;11.40;;
22871;SDS011;11603;44.910;8.630;2022-11-15T17:27:48;15.55;;;11.00;;
22871;SDS011;11603;44.910;8.630;2022-11-15T17:30:14;13.52;;;11.32;;
22871;SDS011;11603;44.910;8.630;2022-11-15T17:32:40;15.25;;;11.73;;
22871;SDS011;11603;44.910;8.630;2022-11-15T17:35:07;14.43;;;11.82;;
22871;SDS011;11603;44.910;8.630;2022-11-15T17:37:35;19.58;;;13.27;;
22871;SDS011;11603;44.910;8.630;2022-11-15T17:40:00;19.58;;;13.75;;
22871;SDS011;11603;44.910;8.630;2022-11-15T17:42:26;21.10;;;14.85;;
22871;SDS011;11603;44.910;8.630;2022-11-15T17:44:51;24.70;;;15.52;;
22871;SDS011;11603;44.910;8.630;2022-11-15T17:47:17;22.05;;;15.45;;
22871;SDS011;11603;44.910;8.630;2022-11-15T17:49:42;23.25;;;15.90;;
22871;SDS011;11603;44.910;8.630;2022-11-15T17:52:08;23.50;;;16.40;;
22871;SDS011;11603;44.910;8.630;2022-11-15T17:54:33;25.65;;;17.13;;
22871;SDS011;11603;44.910;8.630;2022-11-15T17:56:59;24.98;;;17.20;;
22871;SDS011;11603;44.910;8.630;2022-11-15T17:59:24;23.40;;;16.27;;